57°F Temp
46°F Dewpoint
67% Humidity
Temperature
9 MPH
14 KM/H
8 KTS
180°
Due South

Wind Speed
Partly Cloudy
Conditions
Pressure 1015.24 (hPa) - 29.98 (in)
Visibility 10.0 (mi) - 16.1 (km)

Current Conditions
KSJC
Location 9(mi)
Metar :KSJC 011753Z 18008KT 10SM FEW011 SCT035 BKN080 14/08 A2998 RMK AO2 SLP151 60001 T01390078 10150 20106 50001
Fri 1st March 09:53 am

Airport
  Metar Aviation API Data Provided by https://www.checkwx.com/ PHP scripts by weather34.com ©2024